Time;durP1;ratioP1;P1;durP2;ratioP2;P2;SDS_P1;SDS_P2;PMS_P1;PMS_P2;Temp;Humidity;BMP_temperature;BMP_pressure;BME280_temperature;BME280_humidity;BME280_pressure;Samples;Min_cycle;Max_cycle;Signal;HPM_P1;HPM_P2
2022/01/31 00:01:22;;;;;;;6.77;3.13;;;4.40;70.80;4.40;96663.00;;;;4991031;28;20309;-84
2022/01/31 00:03:49;;;;;;;6.83;3.57;;;4.50;71.00;4.40;96670.00;;;;4955250;28;20215;-84
2022/01/31 00:06:16;;;;;;;6.53;3.60;;;4.50;71.10;4.40;96660.00;;;;4955782;28;20334;-84
2022/01/31 00:08:43;;;;;;;5.83;3.63;;;4.50;71.20;4.50;96657.00;;;;4971707;28;20200;-84
2022/01/31 00:11:11;;;;;;;6.10;3.90;;;4.50;71.40;4.50;96647.00;;;;4974262;28;20290;-84
2022/01/31 00:13:42;;;;;;;6.90;3.90;;;4.50;71.40;4.60;96639.00;;;;4955496;28;20391;-84
2022/01/31 00:16:14;;;;;;;7.70;4.23;;;4.60;71.50;4.60;96634.00;;;;4954659;28;20282;-84
2022/01/31 00:18:43;;;;;;;6.00;3.75;;;4.60;71.40;4.60;96630.00;;;;4972768;23;20200;-82
2022/01/31 00:21:11;;;;;;;5.13;3.10;;;4.60;71.50;4.60;96625.00;;;;5029174;28;20648;-82
2022/01/31 00:23:38;;;;;;;5.40;3.73;;;4.60;71.60;4.60;96627.00;;;;5022051;28;20221;-82
2022/01/31 00:26:05;;;;;;;5.97;3.37;;;4.70;71.70;4.70;96622.00;;;;5016322;28;20222;-82
2022/01/31 00:28:32;;;;;;;5.37;3.17;;;4.70;71.70;4.70;96618.00;;;;5004402;28;20282;-82
2022/01/31 00:30:59;;;;;;;7.07;3.17;;;4.70;71.70;4.70;96617.00;;;;4993888;28;20643;-82
2022/01/31 00:33:27;;;;;;;6.73;3.00;;;4.70;71.70;4.80;96614.00;;;;4996295;28;20626;-82
2022/01/31 00:35:55;;;;;;;8.50;3.70;;;4.80;71.90;4.80;96613.00;;;;4996763;28;20577;-82
2022/01/31 00:38:23;;;;;;;5.43;3.10;;;4.80;72.00;4.80;96611.00;;;;4998327;28;20242;-82
2022/01/31 00:40:50;;;;;;;6.77;3.13;;;4.80;71.80;4.80;96612.00;;;;4999179;28;20207;-82
2022/01/31 00:43:20;;;;;;;5.83;2.73;;;4.80;71.80;4.80;96600.00;;;;4995828;28;20230;-82
2022/01/31 00:45:58;;;;;;;4.00;2.63;;;4.90;71.90;4.90;96586.00;;;;4995608;28;20222;-83
2022/01/31 00:48:27;;;;;;;5.53;3.10;;;4.90;71.90;4.90;96576.00;;;;5000331;28;20698;-82
2022/01/31 00:50:58;;;;;;;5.43;2.83;;;4.90;71.90;4.90;96578.00;;;;5024142;28;20279;-82
2022/01/31 00:53:25;;;;;;;5.10;2.67;;;4.90;71.90;4.90;96570.00;;;;5011078;28;20183;-82
2022/01/31 00:55:54;;;;;;;6.60;2.90;;;4.90;71.80;4.90;96588.00;;;;5014331;28;20194;-82
2022/01/31 00:58:22;;;;;;;4.80;3.07;;;5.00;71.80;4.90;96575.00;;;;5009383;28;20231;-82
2022/01/31 01:00:49;;;;;;;4.20;3.07;;;5.00;71.70;4.90;96569.00;;;;4996464;28;20213;-82
2022/01/31 01:03:17;;;;;;;6.13;2.83;;;5.00;71.80;4.90;96567.00;;;;4994872;28;20237;-82
2022/01/31 01:05:44;;;;;;;5.97;3.23;;;5.00;71.90;4.90;96575.00;;;;4995008;28;20222;-83
2022/01/31 01:08:13;;;;;;;7.33;3.30;;;5.00;72.10;5.00;96560.00;;;;5005623;28;20286;-82
2022/01/31 01:10:40;;;;;;;6.27;2.77;;;5.00;72.30;5.00;96557.00;;;;4995578;28;20198;-82
2022/01/31 01:13:07;;;;;;;6.00;2.73;;;5.00;72.40;5.10;96550.00;;;;5011619;28;20655;-82
2022/01/31 01:15:35;;;;;;;4.37;3.10;;;5.10;72.50;5.20;96558.00;;;;5014233;28;20198;-82
2022/01/31 01:18:02;;;;;;;7.07;2.90;;;5.10;72.60;5.20;96560.00;;;;5014297;28;20265;-82
2022/01/31 01:20:31;;;;;;;6.93;2.80;;;5.20;72.80;5.30;96543.00;;;;5014499;28;20573;-82
2022/01/31 01:23:01;;;;;;;4.63;2.77;;;5.20;72.90;5.30;96543.00;;;;5004700;28;20223;-82
2022/01/31 01:25:32;;;;;;;7.50;3.07;;;5.30;72.90;5.40;96555.00;;;;4994195;28;20236;-82
2022/01/31 01:27:59;;;;;;;7.10;2.87;;;5.30;72.80;5.40;96531.00;;;;5002558;28;20663;-82
2022/01/31 01:30:27;;;;;;;4.37;2.90;;;5.40;72.90;5.50;96515.00;;;;5009722;28;20604;-82
2022/01/31 01:33:05;;;;;;;8.83;3.70;;;5.40;72.90;5.50;96519.00;;;;4993389;28;20227;-82
2022/01/31 01:35:37;;;;;;;8.40;3.00;;;5.50;72.80;5.50;96532.00;;;;5007925;28;20794;-82
2022/01/31 01:38:07;;;;;;;6.07;2.70;;;5.50;72.80;5.60;96526.00;;;;5013127;28;20209;-82
2022/01/31 01:40:39;;;;;;;5.17;2.73;;;5.60;72.90;5.60;96502.00;;;;4998203;28;20575;-82
2022/01/31 01:43:11;;;;;;;7.20;2.93;;;5.60;72.80;5.70;96486.00;;;;4994183;28;20219;-82
2022/01/31 01:45:42;;;;;;;6.83;2.93;;;5.60;72.70;5.70;96478.00;;;;5008137;28;20276;-82
2022/01/31 01:48:11;;;;;;;4.63;2.90;;;5.70;72.60;5.70;96461.00;;;;5014656;28;20202;-82
2022/01/31 01:50:42;;;;;;;4.23;2.57;;;5.70;72.60;5.80;96449.00;;;;5000594;28;20206;-80
2022/01/31 01:53:12;;;;;;;5.47;2.77;;;5.70;72.80;5.80;96447.00;;;;5011635;28;20233;-82
2022/01/31 01:55:40;;;;;;;8.37;2.70;;;5.80;72.80;5.80;96448.00;;;;5000614;28;20202;-82
2022/01/31 01:58:14;;;;;;;4.73;2.33;;;5.80;72.80;5.90;96438.00;;;;4998684;28;20237;-82
2022/01/31 02:00:50;;;;;;;6.10;2.33;;;5.90;72.90;6.00;96433.00;;;;5026990;28;20197;-82
2022/01/31 02:03:18;;;;;;;5.50;2.60;;;5.90;72.80;6.10;96419.00;;;;5031700;28;20220;-82
2022/01/31 02:05:47;;;;;;;5.37;2.67;;;6.00;72.90;6.10;96425.00;;;;5012725;28;20702;-82
2022/01/31 02:08:19;;;;;;;4.80;2.53;;;6.00;72.90;6.20;96418.00;;;;5013118;28;20194;-82
2022/01/31 02:10:48;;;;;;;4.27;2.47;;;6.10;72.80;6.20;96395.00;;;;5001982;28;20209;-82
2022/01/31 02:13:16;;;;;;;4.30;2.10;;;6.10;72.70;6.30;96390.00;;;;5009739;28;20256;-82
2022/01/31 02:15:49;;;;;;;4.00;2.13;;;6.20;72.80;6.30;96396.00;;;;5014158;28;20198;-82
2022/01/31 02:18:22;;;;;;;6.83;2.77;;;6.20;72.70;6.40;96389.00;;;;5013261;28;20577;-82
2022/01/31 02:20:51;;;;;;;4.93;2.63;;;6.30;72.70;6.40;96389.00;;;;5010617;28;20203;-82
2022/01/31 02:23:18;;;;;;;4.20;2.27;;;6.30;72.70;6.50;96369.00;;;;4998424;28;20229;-82
2022/01/31 02:25:55;;;;;;;5.70;2.47;;;6.40;72.80;6.50;96351.00;;;;5015628;28;20218;-82
2022/01/31 02:28:27;;;;;;;5.13;2.33;;;6.40;72.60;6.50;96350.00;;;;5006632;28;20622;-82
2022/01/31 02:30:55;;;;;;;5.10;2.63;;;6.50;72.70;6.50;96345.00;;;;4997960;28;20290;-82
2022/01/31 02:33:24;;;;;;;4.83;2.50;;;6.50;72.70;6.60;96349.00;;;;4997201;28;20225;-82
2022/01/31 02:35:56;;;;;;;5.37;2.47;;;6.50;72.50;6.60;96336.00;;;;4997465;28;20202;-82
2022/01/31 02:38:25;;;;;;;3.87;2.20;;;6.50;72.20;6.70;96333.00;;;;5005681;28;20202;-82
2022/01/31 02:40:52;;;;;;;5.50;2.60;;;6.60;72.20;6.70;96318.00;;;;4998797;28;20219;-82
2022/01/31 02:43:20;;;;;;;3.57;2.30;;;6.60;73.00;6.70;96326.00;;;;4997174;28;20194;-82
2022/01/31 02:45:48;;;;;;;3.97;2.40;;;6.60;72.10;6.80;96319.00;;;;5008458;28;20276;-82
2022/01/31 02:48:19;;;;;;;6.37;2.57;;;6.70;72.10;6.80;96310.00;;;;5017104;28;20632;-82
2022/01/31 02:50:46;;;;;;;3.93;2.10;;;6.70;72.10;6.80;96314.00;;;;5016259;28;20662;-82
2022/01/31 02:53:23;;;;;;;5.33;2.63;;;6.70;72.10;6.90;96325.00;;;;5010638;28;20190;-82
2022/01/31 02:55:51;;;;;;;5.00;2.30;;;6.80;72.00;6.90;96320.00;;;;4996668;28;20564;-82
2022/01/31 02:58:20;;;;;;;4.87;2.00;;;6.80;72.00;6.90;96309.00;;;;5010644;28;20270;-82
2022/01/31 03:00:47;;;;;;;8.90;2.50;;;6.80;72.00;7.00;96309.00;;;;4997243;28;20226;-82
2022/01/31 03:03:15;;;;;;;5.77;2.17;;;6.90;71.90;7.00;96311.00;;;;5008523;28;20197;-82
2022/01/31 03:05:43;;;;;;;5.93;2.60;;;6.90;71.80;7.00;96293.00;;;;5016231;28;20233;-81
2022/01/31 03:08:10;;;;;;;5.17;2.50;;;6.90;71.80;7.00;96266.00;;;;5015697;28;20202;-82
2022/01/31 03:10:39;;;;;;;5.67;2.40;;;6.90;71.70;7.00;96242.00;;;;4997313;28;20257;-82
2022/01/31 03:13:06;;;;;;;4.63;2.53;;;7.00;71.70;7.10;96238.00;;;;5009493;28;20214;-82
2022/01/31 03:15:34;;;;;;;6.67;2.50;;;7.00;71.80;7.10;96239.00;;;;5015293;28;20256;-82
2022/01/31 03:18:03;;;;;;;5.80;2.40;;;7.00;71.70;7.10;96241.00;;;;5016175;28;20202;-82
2022/01/31 03:20:30;;;;;;;3.77;2.37;;;7.00;71.60;7.10;96254.00;;;;5011557;28;20194;-82
2022/01/31 03:22:58;;;;;;;4.80;2.40;;;7.00;71.50;7.10;96259.00;;;;4997026;28;20626;-82
2022/01/31 03:25:25;;;;;;;5.50;2.80;;;7.00;71.50;7.10;96243.00;;;;4996283;28;20562;-81
2022/01/31 03:27:55;;;;;;;3.57;2.40;;;7.10;71.70;7.20;96248.00;;;;4998295;28;20273;-82
2022/01/31 03:30:24;;;;;;;5.70;2.50;;;7.10;71.50;7.20;96245.00;;;;5001618;28;20202;-82
2022/01/31 03:32:55;;;;;;;5.03;2.07;;;7.10;71.40;7.20;96223.00;;;;5001104;28;20218;-81
2022/01/31 03:35:23;;;;;;;4.60;2.27;;;7.10;71.30;7.20;96196.00;;;;5008297;28;20245;-82
2022/01/31 03:37:51;;;;;;;5.17;2.30;;;7.10;71.60;7.20;96195.00;;;;5001182;28;20229;-82
2022/01/31 03:40:19;;;;;;;5.17;2.37;;;7.20;71.60;7.20;96200.00;;;;5001914;28;20234;-83
2022/01/31 03:42:47;;;;;;;4.63;2.27;;;7.20;71.70;7.20;96198.00;;;;4998588;28;20221;-82
2022/01/31 03:45:15;;;;;;;3.70;2.10;;;7.20;71.70;7.30;96191.00;;;;5015001;28;20198;-82
2022/01/31 03:47:46;;;;;;;4.83;2.50;;;7.20;71.40;7.30;96144.00;;;;5016127;28;20217;-82
2022/01/31 03:50:17;;;;;;;4.27;2.10;;;7.20;71.60;7.30;96142.00;;;;5013074;28;20197;-82
2022/01/31 03:52:44;;;;;;;5.73;2.50;;;7.20;71.50;7.30;96151.00;;;;5020561;28;20229;-82
2022/01/31 03:55:15;;;;;;;5.13;2.20;;;7.20;71.30;7.30;96139.00;;;;5020636;28;20209;-82
2022/01/31 03:57:42;;;;;;;6.57;2.07;;;7.20;71.30;7.30;96127.00;;;;5007612;28;20237;-82
2022/01/31 04:00:13;;;;;;;8.27;3.03;;;7.20;71.40;7.30;96123.00;;;;5008958;28;20202;-83
2022/01/31 04:02:43;;;;;;;6.43;2.83;;;7.20;71.30;7.30;96127.00;;;;5002238;28;20302;-82
2022/01/31 04:05:11;;;;;;;7.10;2.50;;;7.30;71.50;7.30;96132.00;;;;4996039;28;20257;-81
2022/01/31 04:07:39;;;;;;;7.00;2.60;;;7.30;71.40;7.30;96110.00;;;;5004009;28;20301;-82
2022/01/31 04:10:07;;;;;;;4.47;2.70;;;7.30;71.20;7.30;96107.00;;;;5014438;28;20201;-82
2022/01/31 04:12:35;;;;;;;4.97;2.27;;;7.30;71.30;7.30;96110.00;;;;5017059;28;20269;-82
2022/01/31 04:15:02;;;;;;;4.13;2.30;;;7.30;71.20;7.30;96104.00;;;;5015035;28;20256;-82
2022/01/31 04:17:31;;;;;;;4.37;2.30;;;7.30;71.20;7.30;96105.00;;;;4996999;28;20689;-82
2022/01/31 04:20:00;;;;;;;4.60;2.30;;;7.30;71.30;7.30;96094.00;;;;4996393;28;20222;-82
2022/01/31 04:22:31;;;;;;;7.53;2.47;;;7.30;71.30;7.30;96060.00;;;;5014406;28;20210;-82
2022/01/31 04:25:01;;;;;;;4.10;2.30;;;7.30;71.40;7.40;96058.00;;;;5015012;28;20659;-82
2022/01/31 04:27:33;;;;;;;4.80;2.47;;;7.30;71.50;7.40;96078.00;;;;5009928;28;20312;-82
2022/01/31 04:30:00;;;;;;;2.77;2.00;;;7.30;71.20;7.40;96069.00;;;;5023746;28;20205;-82
2022/01/31 04:32:27;;;;;;;5.17;2.57;;;7.40;71.20;7.40;96062.00;;;;5012232;28;20281;-82
2022/01/31 04:34:54;;;;;;;3.77;2.33;;;7.40;71.20;7.50;96057.00;;;;5000394;28;20236;-82
2022/01/31 04:37:23;;;;;;;4.13;2.17;;;7.40;71.30;7.50;96050.00;;;;5014189;28;20642;-82
2022/01/31 04:39:50;;;;;;;7.87;2.60;;;7.40;71.30;7.50;96030.00;;;;5011574;28;20237;-83
2022/01/31 04:42:17;;;;;;;7.43;2.63;;;7.40;71.30;7.50;96013.00;;;;5004309;28;20334;-83
2022/01/31 04:44:45;;;;;;;6.13;2.43;;;7.40;71.30;7.50;96005.00;;;;4994086;28;20274;-83
2022/01/31 04:47:14;;;;;;;6.10;2.40;;;7.40;71.20;7.60;96005.00;;;;4996071;28;20226;-82
2022/01/31 04:49:41;;;;;;;3.93;2.20;;;7.50;71.30;7.60;95993.00;;;;5005121;28;20243;-82
2022/01/31 04:52:11;;;;;;;4.70;2.67;;;7.50;71.30;7.60;95994.00;;;;5004310;28;20247;-82
2022/01/31 04:54:41;;;;;;;5.33;2.20;;;7.50;71.40;7.60;96001.00;;;;5013275;28;20546;-82
2022/01/31 04:57:09;;;;;;;3.67;2.40;;;7.50;71.20;7.60;95996.00;;;;5011872;28;20229;-82
2022/01/31 04:59:41;;;;;;;5.77;2.30;;;7.50;71.10;7.60;96005.00;;;;5009157;28;20205;-82
2022/01/31 05:02:08;;;;;;;4.33;2.30;;;7.50;71.10;7.60;96001.00;;;;5009257;28;20296;-82
2022/01/31 05:05:09;;;;;;;4.27;2.70;;;7.50;71.10;7.60;96001.00;;;;5024738;28;20554;-83
2022/01/31 05:07:37;;;;;;;3.53;2.33;;;7.50;71.00;7.60;96010.00;;;;5006579;28;20203;-82
2022/01/31 05:10:06;;;;;;;5.40;2.60;;;7.60;71.20;7.60;95995.00;;;;5009977;28;20202;-82
2022/01/31 05:12:34;;;;;;;3.67;2.07;;;7.60;71.00;7.60;95981.00;;;;4996336;28;20301;-82
2022/01/31 05:15:01;;;;;;;5.23;2.60;;;7.60;71.20;7.60;95971.00;;;;5003932;28;20245;-82
2022/01/31 05:17:28;;;;;;;5.60;2.60;;;7.60;71.20;7.60;95962.00;;;;5009118;28;20206;-82
2022/01/31 05:19:55;;;;;;;5.80;2.20;;;7.60;71.20;7.60;95962.00;;;;5012370;28;20289;-83
2022/01/31 05:22:22;;;;;;;4.97;2.10;;;7.60;71.00;7.70;95976.00;;;;5010136;28;20233;-84
2022/01/31 05:24:50;;;;;;;5.17;2.43;;;7.60;71.30;7.70;95965.00;;;;4993448;28;20281;-82
2022/01/31 05:27:19;;;;;;;7.93;2.33;;;7.60;71.40;7.70;95962.00;;;;4995984;28;20328;-82
2022/01/31 05:29:46;;;;;;;7.43;2.43;;;7.60;71.10;7.70;95953.00;;;;5003511;28;20282;-83
2022/01/31 05:32:16;;;;;;;5.77;2.13;;;7.60;71.20;7.70;95957.00;;;;4993625;28;20230;-82
2022/01/31 05:34:44;;;;;;;6.90;2.27;;;7.60;70.90;7.70;95957.00;;;;5012723;28;20288;-82
2022/01/31 05:37:11;;;;;;;5.87;2.10;;;7.60;71.10;7.70;95953.00;;;;5012526;28;20292;-83
2022/01/31 05:39:39;;;;;;;3.97;2.00;;;7.60;70.90;7.80;95952.00;;;;4998497;28;20565;-83
2022/01/31 05:42:07;;;;;;;4.07;2.33;;;7.70;71.10;7.80;95947.00;;;;4993036;28;20280;-83
2022/01/31 05:44:35;;;;;;;4.63;1.97;;;7.70;71.20;7.80;95957.00;;;;4992211;28;20218;-83
2022/01/31 05:47:04;;;;;;;2.63;2.00;;;7.70;71.20;7.80;95952.00;;;;4998981;28;20221;-83
2022/01/31 05:49:38;;;;;;;6.57;2.20;;;7.70;71.30;7.80;95953.00;;;;5012411;28;20204;-83
2022/01/31 05:52:08;;;;;;;5.63;2.60;;;7.70;71.20;7.80;95941.00;;;;5011823;28;20231;-83
2022/01/31 05:54:37;;;;;;;5.53;2.40;;;7.70;71.10;7.80;95940.00;;;;5013094;28;20273;-83
2022/01/31 05:57:05;;;;;;;3.77;2.40;;;7.70;71.10;7.80;95929.00;;;;5013484;28;20244;-83
2022/01/31 05:59:35;;;;;;;6.37;2.47;;;7.70;71.10;7.80;95927.00;;;;5013216;28;20285;-84
2022/01/31 06:02:05;;;;;;;6.70;2.70;;;7.80;70.90;7.80;95920.00;;;;5010261;28;20246;-83
2022/01/31 06:04:32;;;;;;;4.27;2.53;;;7.80;70.90;7.70;95916.00;;;;4996009;28;20227;-82
2022/01/31 06:07:00;;;;;;;3.77;2.50;;;7.70;70.80;7.70;95907.00;;;;4996702;28;20297;-81
2022/01/31 06:09:28;;;;;;;5.60;3.20;;;7.70;71.00;7.70;95908.00;;;;5004518;28;20273;-83
2022/01/31 06:11:56;;;;;;;6.57;3.00;;;7.70;71.10;7.70;95908.00;;;;5000370;28;20280;-83
2022/01/31 06:14:24;;;;;;;4.93;2.20;;;7.70;70.90;7.70;95908.00;;;;4997406;28;20203;-83
2022/01/31 06:16:52;;;;;;;5.97;2.13;;;7.70;71.00;7.70;95889.00;;;;4996209;28;20210;-84
2022/01/31 06:19:19;;;;;;;3.53;2.27;;;7.70;71.10;7.70;95877.00;;;;5020958;23;20699;-88
2022/01/31 06:21:47;;;;;;;4.63;2.57;;;7.70;71.10;7.70;95862.00;;;;5017377;28;20198;-87
2022/01/31 06:24:15;;;;;;;6.03;2.73;;;7.70;71.00;7.70;95854.00;;;;5021998;28;20297;-87
2022/01/31 06:26:43;;;;;;;5.37;2.43;;;7.70;71.00;7.70;95845.00;;;;5017367;28;20565;-88
2022/01/31 06:29:10;;;;;;;6.80;2.83;;;7.70;71.10;7.60;95846.00;;;;5004914;28;20214;-87
2022/01/31 06:31:38;;;;;;;6.07;2.70;;;7.70;71.30;7.60;95850.00;;;;5002839;28;20205;-87
2022/01/31 06:34:06;;;;;;;4.97;2.30;;;7.70;71.10;7.60;95840.00;;;;4996106;28;20210;-87
2022/01/31 06:36:34;;;;;;;5.60;2.87;;;7.70;71.20;7.60;95829.00;;;;4996027;28;20205;-87
2022/01/31 06:39:01;;;;;;;5.27;2.90;;;7.70;71.40;7.60;95826.00;;;;4995611;28;20589;-87
2022/01/31 06:41:28;;;;;;;7.13;3.00;;;7.70;71.40;7.60;95834.00;;;;4991743;28;20207;-86
2022/01/31 06:43:56;;;;;;;5.07;2.47;;;7.70;71.40;7.70;95824.00;;;;4989316;28;20191;-86
2022/01/31 06:46:23;;;;;;;5.47;2.20;;;7.70;71.60;7.70;95816.00;;;;4995430;28;20195;-86
2022/01/31 06:48:50;;;;;;;5.40;2.50;;;7.70;71.70;7.80;95815.00;;;;4995028;28;20309;-87
2022/01/31 06:51:19;;;;;;;5.33;2.70;;;7.70;71.70;7.80;95808.00;;;;4993938;28;20728;-86
2022/01/31 06:53:48;;;;;;;4.37;2.27;;;7.70;71.70;7.90;95815.00;;;;4980130;28;21805;-87
2022/01/31 06:56:16;;;;;;;5.87;2.80;;;8.00;72.10;7.90;95800.00;;;;4992546;28;20222;-86
2022/01/31 06:58:43;;;;;;;4.00;2.80;;;7.80;72.00;7.90;95794.00;;;;4994795;28;20202;-88
2022/01/31 07:01:10;;;;;;;3.90;2.40;;;7.80;72.00;7.90;95788.00;;;;5013610;28;20640;-87
2022/01/31 07:03:37;;;;;;;4.53;2.60;;;7.80;71.90;7.90;95769.00;;;;4994469;28;20203;-86
2022/01/31 07:06:05;;;;;;;5.53;2.93;;;7.80;72.00;7.90;95761.00;;;;4994819;28;20281;-86
2022/01/31 07:08:33;;;;;;;3.13;2.50;;;8.10;72.10;7.90;95755.00;;;;4993849;28;20669;-85
2022/01/31 07:11:00;;;;;;;4.60;2.67;;;7.80;72.00;7.90;95745.00;;;;4994277;28;20697;-86
2022/01/31 07:13:38;;;;;;;3.53;2.80;;;7.80;71.90;7.90;95757.00;;;;4998925;28;20265;-87
2022/01/31 07:16:07;;;;;;;5.43;2.83;;;7.90;72.00;7.90;95741.00;;;;5014224;28;20660;-85
2022/01/31 07:18:36;;;;;;;3.70;2.43;;;7.90;71.80;7.90;95729.00;;;;4995058;28;20207;-86
2022/01/31 07:21:04;;;;;;;4.43;2.80;;;7.90;71.80;7.90;95737.00;;;;5001708;28;20232;-86
2022/01/31 07:23:49;;;;;;;5.67;3.00;;;7.90;71.70;7.90;95729.00;;;;4994179;28;20696;-86
2022/01/31 07:26:18;;;;;;;2.73;2.40;;;7.90;71.40;7.90;95720.00;;;;4994191;28;20187;-87
2022/01/31 07:28:45;;;;;;;3.07;2.27;;;7.90;71.40;8.00;95702.00;;;;4995688;28;20596;-87
2022/01/31 07:31:12;;;;;;;3.50;2.30;;;8.00;71.30;8.00;95704.00;;;;5004081;28;20693;-86
2022/01/31 07:33:42;;;;;;;4.40;2.20;;;8.00;71.70;8.00;95699.00;;;;4993800;28;20195;-86
2022/01/31 07:36:10;;;;;;;2.37;2.10;;;8.00;71.40;8.10;95690.00;;;;4993271;28;20689;-86
2022/01/31 07:38:37;;;;;;;2.87;2.10;;;8.00;71.20;8.10;95691.00;;;;4994069;28;20203;-86
2022/01/31 07:41:04;;;;;;;3.60;2.37;;;8.10;71.10;8.10;95678.00;;;;4993544;28;20215;-86
2022/01/31 07:43:33;;;;;;;4.73;2.10;;;8.10;71.20;8.20;95680.00;;;;4993916;28;20580;-87
2022/01/31 07:46:00;;;;;;;6.70;2.30;;;8.10;70.70;8.20;95678.00;;;;4993197;28;20680;-86
2022/01/31 07:48:29;;;;;;;2.93;2.00;;;8.10;70.90;8.20;95677.00;;;;4993559;28;20345;-86
2022/01/31 07:50:56;;;;;;;3.87;2.10;;;8.20;71.60;8.20;95658.00;;;;4994054;28;20289;-86
2022/01/31 07:53:25;;;;;;;5.90;2.03;;;8.20;70.70;8.20;95656.00;;;;4993513;28;20289;-87
2022/01/31 07:55:52;;;;;;;4.73;2.03;;;8.30;70.40;8.30;95653.00;;;;4993292;28;20286;-87
2022/01/31 07:58:20;;;;;;;3.47;1.93;;;8.20;70.40;8.30;95646.00;;;;4993345;28;20637;-87
2022/01/31 08:00:49;;;;;;;2.40;1.70;;;8.60;70.20;8.40;95643.00;;;;4992455;28;20215;-88
2022/01/31 08:03:16;;;;;;;4.03;1.97;;;8.40;70.10;8.40;95635.00;;;;4993508;28;20219;-87
2022/01/31 08:05:43;;;;;;;2.47;1.40;;;8.30;69.40;8.40;95627.00;;;;4993602;28;20286;-86
2022/01/31 08:08:10;;;;;;;2.90;1.80;;;8.30;69.40;8.40;95622.00;;;;4994125;28;20215;-87
2022/01/31 08:10:38;;;;;;;4.30;1.73;;;8.50;69.70;8.40;95628.00;;;;4992681;28;20206;-86
2022/01/31 08:13:07;;;;;;;3.00;1.50;;;8.40;69.80;8.50;95623.00;;;;4985138;28;20222;-87
2022/01/31 08:15:45;;;;;;;3.03;1.60;;;8.50;69.90;8.50;95621.00;;;;4991166;28;20205;-86
2022/01/31 08:18:14;;;;;;;2.80;1.47;;;8.80;69.00;8.60;95625.00;;;;4991696;28;20191;-87
2022/01/31 08:20:42;;;;;;;4.37;1.60;;;8.60;69.70;8.60;95611.00;;;;4992574;28;20305;-86
2022/01/31 08:23:10;;;;;;;2.70;1.50;;;8.60;69.90;8.70;95620.00;;;;4993109;28;20198;-86
2022/01/31 08:25:37;;;;;;;2.57;1.60;;;8.60;69.70;8.70;95620.00;;;;4986145;28;20195;-86
2022/01/31 08:28:10;;;;;;;3.10;1.60;;;8.60;70.10;8.70;95624.00;;;;4984249;28;20222;-86
2022/01/31 08:30:45;;;;;;;4.87;2.10;;;8.70;70.10;8.80;95630.00;;;;5002585;28;20219;-85
2022/01/31 08:33:25;;;;;;;2.50;1.37;;;8.70;70.30;8.80;95620.00;;;;4978648;28;20253;-86
2022/01/31 08:35:53;;;;;;;4.57;1.93;;;8.80;70.40;8.80;95616.00;;;;4993388;28;20183;-85
2022/01/31 08:38:20;;;;;;;2.10;1.47;;;8.80;70.60;8.80;95613.00;;;;4990652;28;20207;-85
2022/01/31 08:40:48;;;;;;;2.80;1.40;;;8.90;71.00;8.80;95616.00;;;;4994007;28;20214;-86
2022/01/31 08:43:17;;;;;;;2.27;1.50;;;8.80;71.10;8.80;95589.00;;;;4997739;28;20191;-86
2022/01/31 08:45:45;;;;;;;2.10;1.40;;;8.80;71.20;8.80;95625.00;;;;4993271;28;20194;-85
2022/01/31 08:48:13;;;;;;;4.23;1.83;;;8.80;71.40;8.80;95604.00;;;;4992840;28;20269;-85
2022/01/31 08:50:40;;;;;;;2.27;1.60;;;8.80;71.50;8.70;95609.00;;;;4992354;28;20230;-84
2022/01/31 08:53:07;;;;;;;2.43;1.67;;;8.80;71.90;8.70;95596.00;;;;4992650;28;20199;-85
2022/01/31 08:55:36;;;;;;;2.90;1.90;;;8.80;72.30;8.60;95608.00;;;;4992614;28;20198;-85
2022/01/31 08:58:06;;;;;;;3.07;1.70;;;8.70;72.40;8.60;95592.00;;;;4989124;28;20768;-85
2022/01/31 09:00:35;;;;;;;2.73;2.10;;;8.70;72.70;8.50;95581.00;;;;4993124;28;20314;-86
2022/01/31 09:03:18;;;;;;;2.80;1.67;;;8.60;72.80;8.50;95580.00;;;;4991492;28;20660;-86
2022/01/31 09:05:47;;;;;;;2.60;1.80;;;8.60;73.20;8.60;95578.00;;;;4992375;28;20202;-86
2022/01/31 09:08:14;;;;;;;3.63;1.87;;;8.60;73.60;8.60;95560.00;;;;4991746;28;20229;-85
2022/01/31 09:10:43;;;;;;;3.93;2.03;;;8.60;73.90;8.60;95578.00;;;;4981747;28;20253;-86
2022/01/31 09:13:12;;;;;;;1.90;1.60;;;8.60;74.00;8.60;95565.00;;;;4992623;28;20202;-86
2022/01/31 09:15:40;;;;;;;5.60;1.83;;;8.60;74.10;8.50;95563.00;;;;4992470;28;20577;-86
2022/01/31 09:18:08;;;;;;;1.83;1.67;;;8.60;74.20;8.50;95567.00;;;;5004127;28;20254;-86
2022/01/31 09:20:36;;;;;;;3.27;2.30;;;8.60;74.20;8.50;95565.00;;;;4988969;28;20231;-86
2022/01/31 09:23:06;;;;;;;2.57;1.70;;;8.50;74.30;8.50;95561.00;;;;4995494;28;20194;-86
2022/01/31 09:25:35;;;;;;;2.40;2.10;;;8.60;74.50;8.50;95573.00;;;;4991800;28;20748;-87
2022/01/31 09:28:03;;;;;;;4.43;2.47;;;8.60;74.70;8.50;95558.00;;;;5001327;28;20222;-86
2022/01/31 09:30:30;;;;;;;2.17;1.97;;;8.60;74.80;8.50;95581.00;;;;5010952;28;20223;-86
2022/01/31 09:32:59;;;;;;;3.40;2.10;;;8.50;74.80;8.50;95549.00;;;;5016010;28;20225;-86
2022/01/31 09:35:26;;;;;;;4.77;2.30;;;8.50;75.00;8.50;95553.00;;;;5004756;28;20194;-86
2022/01/31 09:37:53;;;;;;;2.33;2.13;;;8.50;75.10;8.50;95549.00;;;;5014735;28;20644;-86
2022/01/31 09:40:23;;;;;;;2.97;1.63;;;8.50;75.20;8.40;95548.00;;;;4979920;28;20227;-86
2022/01/31 09:43:08;;;;;;;2.30;1.87;;;8.50;75.10;8.40;95546.00;;;;4983824;28;20337;-86
2022/01/31 09:45:53;;;;;;;3.07;1.97;;;8.50;75.20;8.30;95552.00;;;;4997536;28;20281;-86
2022/01/31 09:48:32;;;;;;;2.97;1.90;;;8.40;75.40;8.30;95561.00;;;;4996326;28;20696;-85
2022/01/31 09:51:01;;;;;;;2.73;1.90;;;8.40;75.60;8.30;95581.00;;;;4995764;28;20218;-86
2022/01/31 09:53:30;;;;;;;2.70;2.00;;;8.40;76.00;8.30;95561.00;;;;4994839;28;20198;-85
2022/01/31 09:55:59;;;;;;;1.93;1.70;;;8.30;76.00;8.20;95583.00;;;;4996546;28;20289;-86
2022/01/31 09:58:29;;;;;;;4.13;1.77;;;8.40;76.10;8.20;95575.00;;;;4999816;28;20285;-84
2022/01/31 10:01:11;;;;;;;2.10;1.47;;;8.30;76.10;8.20;95592.00;;;;4988539;28;20245;-86
2022/01/31 10:03:50;;;;;;;2.77;1.70;;;8.30;76.40;8.20;95572.00;;;;4976826;28;20209;-86
2022/01/31 10:06:22;;;;;;;1.67;1.33;;;8.30;76.60;8.20;95585.00;;;;4989733;28;20194;-85
2022/01/31 10:09:00;;;;;;;2.73;2.33;;;8.30;76.60;8.20;95579.00;;;;5002585;28;20222;-87
2022/01/31 10:11:37;;;;;;;2.83;1.97;;;8.30;76.70;8.20;95575.00;;;;4994107;28;20198;-86
2022/01/31 10:16:59;;;;;;;1.60;1.33;;;8.20;77.00;8.20;95574.00;;;;4995270;28;20201;-85
2022/01/31 10:19:26;;;;;;;2.30;1.80;;;8.30;77.30;8.30;95570.00;;;;4996275;28;20318;-85
2022/01/31 10:22:13;;;;;;;1.77;1.57;;;8.20;77.40;8.40;95579.00;;;;4995621;28;20278;-86
2022/01/31 10:24:43;;;;;;;2.50;2.20;;;8.30;77.90;8.40;95574.00;;;;4995870;28;20736;-86
2022/01/31 10:27:16;;;;;;;1.60;1.50;;;8.30;77.70;8.50;95574.00;;;;4995929;28;20196;-85
2022/01/31 10:29:45;;;;;;;1.43;1.33;;;8.40;77.80;8.50;95574.00;;;;5000703;28;20226;-86
2022/01/31 10:32:17;;;;;;;1.63;1.53;;;8.40;77.80;8.50;95565.00;;;;5000838;28;20571;-85
2022/01/31 10:34:50;;;;;;;1.20;1.10;;;8.50;77.80;8.60;95571.00;;;;4995547;28;20230;-86
2022/01/31 10:37:20;;;;;;;1.30;1.20;;;8.50;77.80;8.60;95571.00;;;;4995034;28;20199;-86
2022/01/31 10:45:36;;;;;;;0.93;0.93;;;8.60;77.60;8.70;95555.00;;;;4994507;28;20201;-86
2022/01/31 10:54:04;;;;;;;1.50;0.77;;;8.80;78.80;8.90;95546.00;;;;4991230;28;20225;-86
2022/01/31 10:56:42;;;;;;;0.80;0.80;;;8.90;78.10;9.00;95556.00;;;;4989341;28;20280;-85
2022/01/31 10:59:14;;;;;;;0.90;0.80;;;8.90;77.80;9.00;95557.00;;;;4995125;28;20233;-87
2022/01/31 11:01:43;;;;;;;0.90;0.90;;;9.00;77.50;9.10;95556.00;;;;4993769;28;20187;-86
2022/01/31 11:04:14;;;;;;;1.00;0.90;;;9.10;77.70;9.30;95569.00;;;;4987457;28;20282;-85
2022/01/31 11:06:42;;;;;;;1.50;0.83;;;9.20;77.50;9.40;95563.00;;;;4993981;28;20233;-87
2022/01/31 11:09:12;;;;;;;0.60;0.60;;;9.30;77.20;9.50;95556.00;;;;4994203;28;20218;-85
2022/01/31 11:11:42;;;;;;;0.60;0.60;;;9.30;77.30;9.60;95574.00;;;;4994060;28;20223;-86
2022/01/31 11:14:12;;;;;;;0.80;0.80;;;9.40;76.70;9.60;95579.00;;;;4998390;28;20204;-86
2022/01/31 11:16:42;;;;;;;1.13;0.70;;;9.50;76.60;9.60;95585.00;;;;4996962;28;20198;-86
2022/01/31 11:19:12;;;;;;;1.50;0.60;;;9.50;76.40;9.70;95583.00;;;;4996316;28;20649;-86
2022/01/31 11:21:44;;;;;;;0.60;0.60;;;9.60;76.00;9.70;95566.00;;;;4996099;28;20202;-86
2022/01/31 11:24:19;;;;;;;1.03;0.83;;;9.60;75.80;9.70;95593.00;;;;4995392;28;20193;-86
2022/01/31 11:26:50;;;;;;;1.20;0.97;;;9.60;75.80;9.80;95581.00;;;;4996762;28;20202;-86
2022/01/31 11:29:19;;;;;;;0.70;0.70;;;9.70;75.50;9.90;95578.00;;;;4995424;28;20227;-85
2022/01/31 11:31:49;;;;;;;1.27;0.80;;;9.70;75.20;9.90;95567.00;;;;4995049;28;20202;-87
2022/01/31 11:34:16;;;;;;;0.80;0.67;;;9.80;74.90;9.90;95568.00;;;;4993437;28;20201;-85